createdAt,value
2022-08-26T00:01:56.366Z,16.35
2022-08-26T00:04:25.487Z,16.65
2022-08-26T00:06:53.715Z,16.25
2022-08-26T00:09:20.855Z,18.10
2022-08-26T00:11:48.497Z,14.85
2022-08-26T00:14:16.576Z,15.38
2022-08-26T00:16:48.252Z,13.05
2022-08-26T00:19:18.439Z,17.17
2022-08-26T00:21:46.556Z,17.95
2022-08-26T00:24:16.548Z,17.98
2022-08-26T00:26:44.757Z,16.08
2022-08-26T00:29:12.501Z,19.95
2022-08-26T00:31:40.787Z,16.70
2022-08-26T00:34:09.538Z,18.00
2022-08-26T00:36:39.772Z,18.17
2022-08-26T00:39:08.014Z,17.95
2022-08-26T00:41:37.537Z,18.75
2022-08-26T00:44:05.642Z,16.17
2022-08-26T00:46:37.230Z,17.98
2022-08-26T00:49:19.946Z,17.88
2022-08-26T00:51:52.432Z,16.75
2022-08-26T00:54:24.428Z,15.75
2022-08-26T00:57:02.175Z,17.10
2022-08-26T00:59:32.995Z,17.50
2022-08-26T01:02:02.912Z,17.63
2022-08-26T01:04:31.579Z,16.98
2022-08-26T01:06:59.067Z,17.00
2022-08-26T01:09:27.154Z,16.30
2022-08-26T01:11:57.710Z,16.90
2022-08-26T01:14:29.638Z,18.00
2022-08-26T01:16:56.615Z,16.00
2022-08-26T01:20:03.205Z,15.02
2022-08-26T01:22:42.005Z,16.83
2022-08-26T01:25:11.272Z,17.52
2022-08-26T01:27:38.614Z,17.42
2022-08-26T01:30:06.530Z,19.33
2022-08-26T01:32:34.121Z,20.00
2022-08-26T01:35:02.100Z,20.35
2022-08-26T01:37:35.117Z,19.27
2022-08-26T01:40:02.453Z,18.48
2022-08-26T01:42:30.043Z,18.90
2022-08-26T01:45:14.896Z,17.33
2022-08-26T01:47:43.175Z,17.25
2022-08-26T01:50:28.197Z,17.52
2022-08-26T01:53:00.197Z,17.65
2022-08-26T01:55:33.039Z,17.88
2022-08-26T01:58:05.301Z,18.00
2022-08-26T02:00:34.249Z,18.33
2022-08-26T02:03:17.850Z,17.60
2022-08-26T02:05:48.906Z,18.17
2022-08-26T02:08:24.919Z,16.88
2022-08-26T02:10:54.711Z,16.23
2022-08-26T02:13:25.376Z,15.20
2022-08-26T02:15:53.531Z,15.27
2022-08-26T02:18:20.765Z,13.98
2022-08-26T02:20:51.664Z,13.07
2022-08-26T02:23:18.903Z,13.30
2022-08-26T02:25:55.877Z,13.38
2022-08-26T02:28:23.071Z,14.32
2022-08-26T02:30:55.524Z,14.52
2022-08-26T02:33:22.776Z,14.73
2022-08-26T02:35:49.810Z,14.50
2022-08-26T02:38:17.815Z,15.15
2022-08-26T02:40:44.742Z,15.95
2022-08-26T02:43:12.678Z,15.77
2022-08-26T02:45:40.442Z,17.05
2022-08-26T02:48:15.218Z,16.13
2022-08-26T02:50:43.925Z,16.77
2022-08-26T02:53:12.293Z,15.77
2022-08-26T02:55:41.066Z,16.52
2022-08-26T02:58:09.626Z,15.75
2022-08-26T03:00:38.413Z,15.77
2022-08-26T03:03:05.780Z,17.42
2022-08-26T03:05:33.640Z,15.82
2022-08-26T03:08:01.887Z,16.08
2022-08-26T03:10:31.661Z,15.30
2022-08-26T03:13:00.671Z,14.40
2022-08-26T03:15:32.601Z,13.82
2022-08-26T03:17:59.916Z,14.65
2022-08-26T03:20:27.006Z,14.32
2022-08-26T03:22:56.122Z,14.27
2022-08-26T03:25:23.357Z,13.90
2022-08-26T03:27:51.045Z,14.23
2022-08-26T03:30:37.751Z,13.48
2022-08-26T03:33:05.069Z,13.80
2022-08-26T03:35:34.038Z,14.20
2022-08-26T03:38:02.018Z,13.88
2022-08-26T03:40:29.596Z,14.00
2022-08-26T03:42:56.550Z,13.60
2022-08-26T03:45:23.546Z,13.25
2022-08-26T03:47:51.779Z,12.95
2022-08-26T03:50:24.358Z,12.73
2022-08-26T03:52:53.026Z,13.45
2022-08-26T03:55:25.737Z,12.82
2022-08-26T03:57:54.320Z,13.40
2022-08-26T04:00:22.495Z,15.75
2022-08-26T04:02:53.181Z,13.85
2022-08-26T04:05:22.760Z,14.35
2022-08-26T04:07:49.971Z,13.02
2022-08-26T04:10:20.214Z,13.88
2022-08-26T04:12:47.749Z,12.13
2022-08-26T04:15:16.569Z,12.25
2022-08-26T04:17:45.319Z,12.93
2022-08-26T04:20:16.266Z,12.90
2022-08-26T04:22:43.899Z,13.05
2022-08-26T04:25:11.377Z,13.25
2022-08-26T04:27:38.493Z,13.38
2022-08-26T04:30:09.117Z,14.05
2022-08-26T04:32:37.084Z,13.50
2022-08-26T04:35:05.300Z,13.13
2022-08-26T04:37:33.734Z,13.95
2022-08-26T04:40:00.941Z,12.18
2022-08-26T04:42:29.401Z,13.02
2022-08-26T04:44:56.376Z,10.50
2022-08-26T04:47:23.658Z,9.82
2022-08-26T04:49:53.339Z,10.13
2022-08-26T04:52:20.470Z,9.65
2022-08-26T04:54:47.490Z,9.55
2022-08-26T04:57:15.059Z,9.63
2022-08-26T04:59:42.603Z,9.68
2022-08-26T05:02:09.552Z,9.48
2022-08-26T05:04:36.558Z,9.18
2022-08-26T05:07:04.475Z,9.15
2022-08-26T05:09:31.587Z,9.10
2022-08-26T05:11:58.505Z,9.00
2022-08-26T05:14:25.483Z,8.57
2022-08-26T05:16:52.740Z,8.40
2022-08-26T05:19:19.908Z,8.32
2022-08-26T05:21:49.360Z,7.22
2022-08-26T05:24:18.000Z,7.90
2022-08-26T05:26:45.586Z,7.88
2022-08-26T05:29:14.139Z,8.18
2022-08-26T05:31:41.654Z,8.68
2022-08-26T05:34:08.736Z,8.15
2022-08-26T05:36:36.237Z,8.07
2022-08-26T05:39:06.516Z,7.53
2022-08-26T05:41:38.403Z,7.45
2022-08-26T05:44:08.871Z,7.53
2022-08-26T05:46:36.886Z,7.50
2022-08-26T05:49:06.197Z,7.05
2022-08-26T05:51:41.512Z,8.02
2022-08-26T05:54:10.482Z,7.18
2022-08-26T05:56:38.666Z,7.68
2022-08-26T05:59:06.713Z,8.10
2022-08-26T06:01:43.627Z,7.72
2022-08-26T06:04:12.651Z,6.90
2022-08-26T06:06:43.277Z,7.10
2022-08-26T06:09:12.286Z,6.50
2022-08-26T06:11:40.357Z,7.00
2022-08-26T06:14:08.459Z,7.22
2022-08-26T06:16:41.308Z,6.40
2022-08-26T06:19:10.563Z,5.75
2022-08-26T06:21:40.359Z,5.57
2022-08-26T06:24:29.178Z,6.00
2022-08-26T06:27:01.786Z,5.90
2022-08-26T06:29:34.684Z,6.18
2022-08-26T06:32:04.926Z,5.55
2022-08-26T06:34:32.838Z,5.25
2022-08-26T06:37:06.637Z,5.53
2022-08-26T06:39:34.438Z,5.78
2022-08-26T06:42:03.274Z,5.22
2022-08-26T06:44:33.843Z,5.43
2022-08-26T06:47:01.068Z,4.90
2022-08-26T06:49:28.197Z,4.25
2022-08-26T06:51:58.715Z,5.22
2022-08-26T06:54:27.118Z,5.32
2022-08-26T06:56:56.143Z,4.57
2022-08-26T06:59:24.558Z,4.90
2022-08-26T07:01:52.489Z,5.65
2022-08-26T07:04:23.053Z,5.72
2022-08-26T07:06:52.970Z,4.85
2022-08-26T07:09:22.226Z,4.70
2022-08-26T07:11:49.599Z,4.05
2022-08-26T07:14:19.425Z,4.35
2022-08-26T07:16:52.410Z,4.25
2022-08-26T07:19:31.210Z,4.18
2022-08-26T07:22:04.810Z,3.67
2022-08-26T07:24:42.341Z,3.40
2022-08-26T07:27:15.231Z,3.75
2022-08-26T07:29:43.819Z,3.30
2022-08-26T07:32:14.148Z,3.42
2022-08-26T07:34:42.083Z,3.58
2022-08-26T07:37:09.849Z,3.70
2022-08-26T07:39:37.336Z,3.33
2022-08-26T07:42:07.538Z,3.17
2022-08-26T07:44:35.249Z,3.72
2022-08-26T07:47:02.338Z,2.80
2022-08-26T07:49:29.811Z,3.30
2022-08-26T07:51:57.254Z,2.90
2022-08-26T07:54:27.316Z,2.90
2022-08-26T07:56:55.936Z,3.10
2022-08-26T07:59:24.503Z,3.10
2022-08-26T08:01:52.300Z,3.40
2022-08-26T08:04:25.572Z,3.38
2022-08-26T08:06:54.340Z,2.97
2022-08-26T08:09:22.501Z,2.88
2022-08-26T08:11:51.379Z,3.38
2022-08-26T08:14:22.063Z,3.03
2022-08-26T08:16:53.321Z,3.08
2022-08-26T08:19:22.146Z,2.25
2022-08-26T08:21:49.900Z,3.03
2022-08-26T08:24:18.996Z,3.10
2022-08-26T08:26:46.386Z,2.92
2022-08-26T08:29:14.757Z,2.97
2022-08-26T08:31:58.502Z,2.72
2022-08-26T08:34:29.965Z,2.73
2022-08-26T08:36:57.589Z,2.90
2022-08-26T08:39:25.227Z,2.75
2022-08-26T08:42:09.579Z,2.28
2022-08-26T08:44:42.277Z,2.78
2022-08-26T08:47:20.754Z,2.70
2022-08-26T08:49:48.644Z,3.00
2022-08-26T08:52:37.781Z,2.80
2022-08-26T08:55:11.077Z,3.30
2022-08-26T08:58:08.047Z,2.88
2022-08-26T09:00:47.073Z,3.08
2022-08-26T09:03:52.121Z,3.00
2022-08-26T09:06:20.735Z,2.80
2022-08-26T09:08:50.852Z,2.80
2022-08-26T09:11:22.450Z,3.35
2022-08-26T09:13:54.054Z,3.25
2022-08-26T09:16:27.857Z,2.90
2022-08-26T09:19:23.525Z,2.58
2022-08-26T09:21:58.865Z,2.60
2022-08-26T09:24:28.585Z,2.85
2022-08-26T09:26:58.452Z,2.65
2022-08-26T09:29:29.693Z,2.70
2022-08-26T09:32:22.242Z,2.58
2022-08-26T09:34:59.474Z,3.15
2022-08-26T09:37:43.604Z,2.95
2022-08-26T09:40:27.021Z,2.80
2022-08-26T09:43:22.889Z,2.90
2022-08-26T09:46:10.243Z,2.70
2022-08-26T09:48:41.061Z,2.97
2022-08-26T09:51:35.733Z,2.70
2022-08-26T09:54:05.609Z,2.50
2022-08-26T09:56:39.178Z,2.78
2022-08-26T09:59:11.562Z,3.28
2022-08-26T10:01:43.971Z,2.40
2022-08-26T10:04:20.162Z,2.65
2022-08-26T10:06:59.251Z,2.80
2022-08-26T10:09:26.918Z,2.40
2022-08-26T10:11:59.130Z,2.67
2022-08-26T10:17:07.451Z,2.33
2022-08-26T10:19:57.813Z,2.60
2022-08-26T10:23:13.023Z,2.53
2022-08-26T10:26:08.603Z,2.65
2022-08-26T10:28:49.024Z,2.20
2022-08-26T10:31:28.786Z,2.63
2022-08-26T10:34:00.470Z,2.10
2022-08-26T10:37:15.206Z,2.30
2022-08-26T10:40:22.043Z,2.25
2022-08-26T10:43:19.163Z,2.20
2022-08-26T10:45:55.130Z,2.13
2022-08-26T10:48:35.374Z,2.33
2022-08-26T10:51:04.362Z,1.90
2022-08-26T10:53:32.882Z,2.20
2022-08-26T10:56:32.593Z,2.60
2022-08-26T10:59:12.326Z,2.40
2022-08-26T11:01:42.672Z,1.92
2022-08-26T11:04:09.893Z,2.20
2022-08-26T11:06:37.234Z,2.42
2022-08-26T11:09:07.209Z,2.38
2022-08-26T11:11:40.196Z,2.33
2022-08-26T11:14:10.131Z,1.92
2022-08-26T11:16:46.715Z,2.08
2022-08-26T11:20:00.875Z,1.98
2022-08-26T11:22:47.787Z,2.72
2022-08-26T11:25:26.452Z,2.15
2022-08-26T11:28:00.610Z,2.30
2022-08-26T11:30:40.570Z,2.05
2022-08-26T11:33:08.345Z,2.10
2022-08-26T11:35:37.447Z,2.25
2022-08-26T11:38:27.782Z,2.17
2022-08-26T11:41:10.886Z,2.20
2022-08-26T11:43:40.791Z,2.10
2022-08-26T11:46:11.242Z,1.92
2022-08-26T11:48:43.580Z,2.30
2022-08-26T11:51:21.015Z,2.38
2022-08-26T11:53:49.391Z,1.98
2022-08-26T11:56:24.763Z,2.80
2022-08-26T11:58:57.091Z,2.28
2022-08-26T12:01:31.817Z,2.30
2022-08-26T12:04:00.601Z,2.20
2022-08-26T12:06:38.866Z,1.85
2022-08-26T12:09:21.231Z,1.80
2022-08-26T12:11:50.935Z,2.53
2022-08-26T12:14:22.139Z,2.05
2022-08-26T12:16:49.521Z,2.03
2022-08-26T12:19:27.412Z,2.05
2022-08-26T12:22:15.625Z,2.10
2022-08-26T12:24:50.213Z,2.05
2022-08-26T12:27:29.191Z,2.20
2022-08-26T12:30:13.913Z,2.35
2022-08-26T12:32:58.762Z,2.40
2022-08-26T12:35:29.448Z,1.80
2022-08-26T12:37:57.667Z,2.30
2022-08-26T12:40:35.966Z,2.70
2022-08-26T12:43:07.486Z,2.78
2022-08-26T12:45:43.464Z,2.45
2022-08-26T12:48:29.293Z,2.25
2022-08-26T12:53:29.427Z,2.17
2022-08-26T12:56:05.227Z,2.33
2022-08-26T12:58:33.662Z,2.08
2022-08-26T13:01:07.224Z,2.00
2022-08-26T13:03:34.599Z,2.10
2022-08-26T13:06:23.590Z,2.30
2022-08-26T13:09:17.022Z,2.10
2022-08-26T13:11:45.090Z,2.22
2022-08-26T13:14:21.095Z,2.10
2022-08-26T13:16:51.789Z,2.28
2022-08-26T13:19:21.442Z,2.33
2022-08-26T13:21:50.761Z,2.35
2022-08-26T13:24:22.582Z,2.17
2022-08-26T13:26:50.403Z,2.05
2022-08-26T13:29:18.375Z,2.47
2022-08-26T13:31:46.521Z,2.38
2022-08-26T13:34:19.032Z,2.60
2022-08-26T13:36:47.862Z,2.40
2022-08-26T13:39:14.909Z,2.10
2022-08-26T13:41:43.387Z,2.10
2022-08-26T13:44:11.342Z,2.22
2022-08-26T13:46:38.976Z,2.10
2022-08-26T13:49:07.036Z,2.35
2022-08-26T13:51:34.312Z,2.50
2022-08-26T13:54:01.847Z,2.63
2022-08-26T13:56:29.846Z,2.42
2022-08-26T13:58:58.396Z,2.30
2022-08-26T14:01:26.239Z,2.50
2022-08-26T14:03:53.339Z,2.25
2022-08-26T14:06:21.656Z,2.83
2022-08-26T14:08:48.912Z,2.70
2022-08-26T14:11:16.167Z,2.40
2022-08-26T14:13:43.534Z,2.30
2022-08-26T14:16:16.192Z,2.10
2022-08-26T14:18:47.328Z,2.10
2022-08-26T14:21:17.608Z,3.00
2022-08-26T14:23:44.962Z,2.85
2022-08-26T14:26:27.940Z,2.95
2022-08-26T14:28:58.983Z,2.53
2022-08-26T14:31:27.326Z,2.55
2022-08-26T14:33:57.913Z,2.65
2022-08-26T14:36:33.733Z,2.45
2022-08-26T14:41:54.348Z,2.25
2022-08-26T14:44:27.834Z,2.67
2022-08-26T14:46:55.396Z,3.00
2022-08-26T14:49:24.221Z,2.70
2022-08-26T14:51:51.236Z,2.67
2022-08-26T14:54:19.961Z,2.90
2022-08-26T14:56:58.799Z,2.28
2022-08-26T14:59:27.727Z,2.72
2022-08-26T15:01:55.256Z,2.92
2022-08-26T15:04:23.244Z,2.65
2022-08-26T15:06:52.160Z,2.83
2022-08-26T15:09:19.404Z,2.78
2022-08-26T15:11:47.662Z,2.70
2022-08-26T15:14:19.688Z,3.45
2022-08-26T15:16:52.615Z,3.35
2022-08-26T15:19:20.990Z,3.80
2022-08-26T15:21:48.781Z,3.17
2022-08-26T15:24:19.355Z,3.45
2022-08-26T15:26:46.996Z,5.25
2022-08-26T15:29:14.781Z,6.25
2022-08-26T15:31:42.147Z,4.85
2022-08-26T15:34:16.045Z,4.93
2022-08-26T15:36:45.996Z,4.28
2022-08-26T15:39:14.101Z,3.33
2022-08-26T15:41:42.780Z,3.50
2022-08-26T15:44:11.424Z,4.45
2022-08-26T15:46:39.371Z,4.15
2022-08-26T15:49:07.500Z,3.65
2022-08-26T15:51:45.615Z,3.55
2022-08-26T15:54:14.331Z,4.03
2022-08-26T15:56:42.601Z,4.05
2022-08-26T15:59:11.842Z,4.22
2022-08-26T16:01:39.655Z,4.13
2022-08-26T16:04:07.644Z,3.97
2022-08-26T16:06:37.669Z,3.92
2022-08-26T16:09:06.006Z,4.00
2022-08-26T16:11:34.448Z,3.80
2022-08-26T16:14:02.151Z,3.95
2022-08-26T16:16:29.669Z,4.15
2022-08-26T16:18:57.075Z,3.70
2022-08-26T16:21:29.945Z,7.15
2022-08-26T16:23:58.162Z,5.13
2022-08-26T16:26:29.165Z,11.57
2022-08-26T16:28:56.550Z,8.70
2022-08-26T16:31:23.674Z,5.75
2022-08-26T16:33:51.551Z,4.43
2022-08-26T16:36:18.792Z,4.15
2022-08-26T16:38:53.578Z,3.80
2022-08-26T16:41:21.649Z,3.88
2022-08-26T16:43:48.850Z,4.07
2022-08-26T16:46:16.389Z,4.03
2022-08-26T16:48:44.803Z,4.07
2022-08-26T16:51:23.217Z,4.18
2022-08-26T16:53:51.774Z,3.85
2022-08-26T16:56:21.747Z,4.50
2022-08-26T16:58:49.365Z,4.20
2022-08-26T17:01:18.263Z,4.50
2022-08-26T17:03:45.355Z,4.53
2022-08-26T17:06:12.424Z,4.30
2022-08-26T17:08:41.280Z,4.43
2022-08-26T17:11:09.142Z,4.60
2022-08-26T17:13:39.344Z,5.07
2022-08-26T17:16:09.435Z,5.47
2022-08-26T17:18:37.189Z,5.30
2022-08-26T17:21:08.445Z,4.78
2022-08-26T17:23:37.113Z,4.65
2022-08-26T17:26:05.454Z,4.63
2022-08-26T17:28:32.953Z,4.93
2022-08-26T17:31:01.279Z,4.88
2022-08-26T17:33:29.378Z,5.13
2022-08-26T17:35:56.665Z,5.05
2022-08-26T17:38:24.534Z,4.70
2022-08-26T17:40:52.126Z,5.18
2022-08-26T17:43:19.659Z,4.70
2022-08-26T17:45:46.993Z,5.30
2022-08-26T17:48:14.871Z,5.63
2022-08-26T17:50:43.522Z,5.30
2022-08-26T17:53:18.712Z,5.40
2022-08-26T17:55:47.961Z,5.13
2022-08-26T17:58:17.477Z,5.70
2022-08-26T18:00:52.424Z,5.15
2022-08-26T18:03:20.082Z,5.22
2022-08-26T18:05:52.864Z,5.07
2022-08-26T18:08:20.501Z,5.55
2022-08-26T18:10:47.963Z,4.82
2022-08-26T18:13:15.413Z,5.00
2022-08-26T18:15:45.369Z,4.97
2022-08-26T18:18:14.105Z,5.30
2022-08-26T18:20:43.433Z,5.03
2022-08-26T18:23:11.466Z,4.88
2022-08-26T18:25:41.313Z,5.47
2022-08-26T18:28:08.670Z,5.57
2022-08-26T18:30:36.115Z,5.40
2022-08-26T18:33:03.248Z,5.38
2022-08-26T18:35:31.062Z,5.95
2022-08-26T18:37:58.355Z,5.28
2022-08-26T18:40:40.254Z,5.45
2022-08-26T18:43:07.405Z,5.45
2022-08-26T18:45:34.846Z,5.30
2022-08-26T18:48:03.478Z,4.95
2022-08-26T18:50:30.891Z,5.75
2022-08-26T18:52:58.062Z,5.78
2022-08-26T18:55:25.497Z,5.65
2022-08-26T18:57:52.611Z,6.60
2022-08-26T19:00:20.229Z,6.57
2022-08-26T19:02:52.045Z,5.88
2022-08-26T19:05:22.829Z,5.85
2022-08-26T19:07:49.763Z,6.28
2022-08-26T19:10:16.867Z,6.30
2022-08-26T19:12:43.956Z,6.25
2022-08-26T19:15:11.321Z,6.47
2022-08-26T19:17:38.270Z,5.72
2022-08-26T19:20:06.030Z,6.70
2022-08-26T19:22:33.280Z,7.57
2022-08-26T19:25:01.449Z,8.35
2022-08-26T19:27:28.435Z,9.05
2022-08-26T19:29:57.430Z,10.45
2022-08-26T19:32:25.530Z,10.02
2022-08-26T19:34:53.097Z,9.40
2022-08-26T19:37:20.594Z,9.23
2022-08-26T19:39:48.059Z,8.70
2022-08-26T19:42:15.008Z,8.32
2022-08-26T19:45:24.405Z,8.23
2022-08-26T19:47:53.177Z,7.72
2022-08-26T19:50:21.650Z,7.68
2022-08-26T19:52:48.989Z,7.78
2022-08-26T19:55:20.341Z,8.13
2022-08-26T19:57:47.495Z,7.63
2022-08-26T20:00:19.772Z,8.02
2022-08-26T20:02:47.444Z,8.48
2022-08-26T20:05:15.920Z,9.82
2022-08-26T20:07:43.722Z,10.00
2022-08-26T20:10:13.666Z,9.40
2022-08-26T20:12:42.086Z,8.95
2022-08-26T20:15:11.626Z,8.73
2022-08-26T20:17:39.323Z,9.23
2022-08-26T20:20:33.413Z,9.32
2022-08-26T20:23:03.715Z,8.82
2022-08-26T20:25:32.743Z,8.80
2022-08-26T20:28:00.584Z,7.95
2022-08-26T20:30:27.726Z,7.88
2022-08-26T20:32:54.863Z,8.75
2022-08-26T20:35:22.005Z,8.52
2022-08-26T20:37:49.093Z,8.38
2022-08-26T20:40:16.407Z,9.57
2022-08-26T20:42:43.602Z,9.27
2022-08-26T20:45:11.091Z,8.93
2022-08-26T20:47:38.276Z,8.70
2022-08-26T20:50:06.135Z,9.00
2022-08-26T20:52:33.188Z,8.98
2022-08-26T20:55:00.290Z,9.23
2022-08-26T20:57:27.226Z,8.77
2022-08-26T20:59:54.226Z,9.20
2022-08-26T21:02:21.816Z,8.75
2022-08-26T21:04:48.840Z,9.70
2022-08-26T21:07:16.803Z,8.90
2022-08-26T21:09:44.707Z,9.55
2022-08-26T21:12:12.953Z,8.65
2022-08-26T21:14:40.228Z,8.55
2022-08-26T21:17:07.197Z,8.60
2022-08-26T21:19:34.221Z,9.73
2022-08-26T21:22:01.255Z,9.18
2022-08-26T21:24:28.507Z,8.30
2022-08-26T21:26:55.491Z,9.43
2022-08-26T21:29:22.702Z,8.10
2022-08-26T21:31:50.127Z,7.93
2022-08-26T21:34:18.973Z,7.93
2022-08-26T21:36:47.617Z,7.88
2022-08-26T21:39:15.658Z,7.57
2022-08-26T21:41:43.806Z,7.97
2022-08-26T21:44:12.616Z,8.18
2022-08-26T21:46:40.581Z,8.32
2022-08-26T21:49:10.365Z,8.70
2022-08-26T21:51:40.299Z,7.43
2022-08-26T21:54:11.145Z,8.90
2022-08-26T21:56:46.302Z,8.77
2022-08-26T21:59:16.408Z,8.45
2022-08-26T22:01:43.462Z,8.70
2022-08-26T22:04:10.964Z,9.07
2022-08-26T22:06:47.842Z,8.27
2022-08-26T22:09:17.328Z,7.97
2022-08-26T22:11:44.901Z,7.75
2022-08-26T22:14:12.205Z,8.40
2022-08-26T22:16:39.376Z,8.27
2022-08-26T22:19:07.435Z,8.48
2022-08-26T22:21:39.765Z,8.35
2022-08-26T22:24:08.726Z,8.27
2022-08-26T22:26:36.014Z,8.02
2022-08-26T22:29:03.958Z,8.25
2022-08-26T22:31:37.283Z,8.23
2022-08-26T22:34:11.087Z,9.05
2022-08-26T22:36:44.013Z,8.23
2022-08-26T22:39:13.313Z,8.45
2022-08-26T22:41:41.352Z,9.10
2022-08-26T22:44:08.387Z,9.40
2022-08-26T22:46:36.947Z,9.77
2022-08-26T22:49:05.075Z,10.13
2022-08-26T22:51:32.261Z,9.82
2022-08-26T22:53:59.501Z,10.52
2022-08-26T22:56:26.674Z,10.00
2022-08-26T22:58:53.862Z,10.02
2022-08-26T23:01:21.204Z,9.70
2022-08-26T23:03:48.441Z,9.65
2022-08-26T23:06:15.868Z,9.48
2022-08-26T23:08:45.428Z,8.95
2022-08-26T23:11:14.222Z,9.27
2022-08-26T23:13:42.134Z,9.50
2022-08-26T23:16:12.611Z,8.32
2022-08-26T23:18:41.428Z,8.88
2022-08-26T23:21:09.459Z,9.38
2022-08-26T23:23:37.098Z,9.20
2022-08-26T23:26:06.349Z,9.43
2022-08-26T23:28:34.202Z,9.48
2022-08-26T23:31:01.158Z,10.23
2022-08-26T23:33:48.283Z,9.98
2022-08-26T23:36:17.875Z,11.30
2022-08-26T23:38:45.499Z,11.73
2022-08-26T23:41:21.474Z,11.43
2022-08-26T23:43:48.474Z,11.25
2022-08-26T23:46:15.692Z,10.57
2022-08-26T23:48:42.886Z,10.45
2022-08-26T23:51:28.557Z,9.98
2022-08-26T23:53:55.571Z,9.48
2022-08-26T23:56:22.520Z,9.18
2022-08-26T23:58:49.505Z,10.15
